Time;durP1;ratioP1;P1;durP2;ratioP2;P2;SDS_P1;SDS_P2;PMS_P1;PMS_P2;Temp;Humidity;BMP_temperature;BMP_pressure;BME280_temperature;BME280_humidity;BME280_pressure;Samples;Min_cycle;Max_cycle;Signal;HPM_P1;HPM_P2
2023/06/06 00:01:57;;;;;;;2.27;1.50;;;;;;;20.18;80.74;100069.03;6299892;28;20412;-69
2023/06/06 00:05:00;;;;;;;1.70;1.17;;;;;;;20.12;81.65;100067.00;6300004;28;20051;-70
2023/06/06 00:08:01;;;;;;;3.67;1.50;;;;;;;20.11;81.58;100078.56;6300232;28;20094;-70
2023/06/06 00:11:02;;;;;;;2.30;1.30;;;;;;;20.04;81.06;100075.72;6287503;28;20097;-70
2023/06/06 00:14:04;;;;;;;2.67;1.47;;;;;;;20.07;81.06;100083.34;6298485;28;20053;-70
2023/06/06 00:17:06;;;;;;;1.75;1.30;;;;;;;20.05;81.27;100079.19;6299804;28;20492;-70
2023/06/06 00:20:09;;;;;;;1.25;1.08;;;;;;;20.15;82.74;100087.88;6296620;28;20063;-70
2023/06/06 00:23:10;;;;;;;2.85;1.80;;;;;;;20.07;82.80;100088.63;6297129;28;20086;-69
2023/06/06 00:26:11;;;;;;;4.07;2.38;;;;;;;20.03;82.83;100089.09;6281701;28;20098;-69
2023/06/06 00:29:12;;;;;;;3.27;2.00;;;;;;;19.97;84.72;100087.06;6274981;28;20385;-69
2023/06/06 00:32:12;;;;;;;6.87;3.70;;;;;;;19.81;85.55;100082.47;6274771;28;20049;-70
2023/06/06 00:35:13;;;;;;;8.43;3.70;;;;;;;19.83;86.72;100088.44;6273696;28;20041;-70
2023/06/06 00:38:14;;;;;;;6.33;3.30;;;;;;;19.91;88.58;100088.50;6273033;28;20053;-70
2023/06/06 00:41:15;;;;;;;3.40;2.33;;;;;;;19.96;86.48;100086.25;6274430;28;20063;-70
2023/06/06 00:44:16;;;;;;;8.40;2.03;;;;;;;19.95;88.78;100094.31;6285713;28;20078;-71
2023/06/06 00:47:16;;;;;;;3.80;1.87;;;;;;;19.90;89.21;100082.38;6282231;28;20484;-69
2023/06/06 00:50:18;;;;;;;2.33;1.50;;;;;;;19.84;88.68;100085.63;6299163;28;20055;-70
2023/06/06 00:53:20;;;;;;;1.67;1.50;;;;;;;19.81;89.14;100088.59;6297625;28;20052;-70
2023/06/06 00:56:22;;;;;;;4.60;1.73;;;;;;;19.81;89.71;100085.97;6294630;28;20041;-69
2023/06/06 00:59:23;;;;;;;1.80;1.40;;;;;;;19.82;90.34;100084.13;6277286;28;20049;-69
2023/06/06 01:02:24;;;;;;;1.35;1.23;;;;;;;19.65;91.27;100083.97;6272977;28;20132;-69
2023/06/06 01:05:26;;;;;;;1.83;1.30;;;;;;;19.53;91.94;100086.00;6273819;28;20045;-70
2023/06/06 01:08:26;;;;;;;5.22;1.60;;;;;;;19.61;92.45;100089.72;6272867;28;20278;-69
2023/06/06 01:11:43;;;;;;;3.53;1.93;;;;;;;19.59;93.13;100087.22;6296347;28;20048;-69
2023/06/06 01:14:58;;;;;;;2.50;1.73;;;;;;;19.58;92.40;100087.34;6295157;28;20049;-69
2023/06/06 01:18:01;;;;;;;1.80;1.33;;;;;;;19.62;93.97;100083.44;6298306;28;20049;-69
2023/06/06 01:21:02;;;;;;;2.25;1.77;;;;;;;19.62;94.51;100080.78;6297992;28;20044;-70
2023/06/06 01:24:04;;;;;;;1.58;1.48;;;;;;;19.62;95.04;100088.72;6295324;28;20052;-70
2023/06/06 01:27:05;;;;;;;3.28;1.40;;;;;;;19.54;95.08;100084.19;6291983;28;20041;-69
2023/06/06 01:30:06;;;;;;;1.63;1.53;;;;;;;19.49;95.89;100095.22;6273445;28;20096;-70
2023/06/06 01:33:07;;;;;;;3.80;2.00;;;;;;;19.46;96.01;100092.88;6295842;28;20091;-69
2023/06/06 01:36:38;;;;;;;1.80;1.63;;;;;;;19.47;95.04;100091.06;6295180;28;20057;-70
2023/06/06 01:39:43;;;;;;;3.67;2.03;;;;;;;19.48;96.90;100096.22;6297534;28;20044;-69
2023/06/06 01:42:48;;;;;;;2.17;1.67;;;;;;;19.43;95.79;100095.81;6297793;28;20044;-69
2023/06/06 01:45:50;;;;;;;4.32;1.50;;;;;;;19.45;94.87;100093.03;6294615;28;20523;-68
2023/06/06 01:48:51;;;;;;;;;;;;;;;19.39;96.12;100098.91;6276372;28;20055;-69
2023/06/06 01:51:53;;;;;;;2.88;1.55;;;;;;;19.36;96.51;100096.59;6296254;28;19920;-70
2023/06/06 01:54:55;;;;;;;3.03;1.80;;;;;;;19.39;96.89;100099.75;6290693;28;20045;-69
2023/06/06 01:57:57;;;;;;;2.35;1.77;;;;;;;19.36;97.03;100097.41;6283245;28;20049;-69
2023/06/06 02:00:57;;;;;;;5.28;2.00;;;;;;;19.36;97.33;100100.06;6281345;28;20179;-69
2023/06/06 02:03:58;;;;;;;2.50;1.53;;;;;;;19.36;96.19;100102.69;6272511;28;20049;-70
2023/06/06 02:07:00;;;;;;;2.10;1.70;;;;;;;19.35;96.00;100102.84;6278775;28;20416;-70
2023/06/06 02:10:01;;;;;;;;;;;;;;;19.32;97.08;100090.75;6295266;28;20052;-69
2023/06/06 02:13:02;;;;;;;1.70;1.60;;;;;;;19.29;96.64;100093.69;6295960;28;20372;-69
2023/06/06 02:16:03;;;;;;;2.50;1.77;;;;;;;19.30;96.47;100096.19;6296532;28;20052;-69
2023/06/06 02:19:03;;;;;;;2.73;1.80;;;;;;;19.31;96.89;100107.59;6294988;28;20404;-69
2023/06/06 02:22:07;;;;;;;2.73;1.60;;;;;;;19.18;96.24;100102.66;6295724;28;20080;-68
2023/06/06 02:25:08;;;;;;;3.63;1.60;;;;;;;19.13;96.72;100099.63;6293790;28;20131;-70
2023/06/06 02:28:09;;;;;;;4.93;1.70;;;;;;;19.11;96.62;100098.97;6296541;28;20476;-69
2023/06/06 02:31:11;;;;;;;3.77;1.87;;;;;;;19.12;96.43;100097.97;6282827;28;20060;-69
2023/06/06 02:34:12;;;;;;;3.28;1.80;;;;;;;19.13;96.52;100100.47;6272069;28;20511;-70
2023/06/06 02:37:13;;;;;;;4.90;1.60;;;;;;;19.07;96.80;100103.69;6270783;28;20076;-70
2023/06/06 02:40:13;;;;;;;1.77;1.57;;;;;;;19.02;97.54;100097.19;6271844;28;20280;-70
2023/06/06 02:43:15;;;;;;;3.77;1.90;;;;;;;19.04;97.55;100103.97;6271945;28;20080;-70
2023/06/06 02:46:18;;;;;;;5.55;1.83;;;;;;;19.04;97.67;100103.97;6273632;28;20052;-69
2023/06/06 02:49:19;;;;;;;3.92;1.90;;;;;;;19.00;98.00;100099.13;6295058;28;20518;-71
2023/06/06 02:52:21;;;;;;;2.10;1.80;;;;;;;19.01;98.41;100104.28;6294881;28;20494;-69
2023/06/06 02:55:24;;;;;;;;;;;;;;;18.99;98.77;100108.06;6295380;28;20105;-70
2023/06/06 02:58:29;;;;;;;5.57;1.80;;;;;;;19.06;99.27;100112.59;6276580;28;19920;-70
2023/06/06 03:01:32;;;;;;;1.90;1.52;;;;;;;19.06;98.98;100107.31;6271267;28;20052;-70
2023/06/06 03:04:33;;;;;;;3.60;1.98;;;;;;;19.04;98.54;100111.91;6270115;28;20045;-70
2023/06/06 03:07:34;;;;;;;2.80;2.10;;;;;;;19.08;97.53;100104.53;6271354;28;20554;-69
2023/06/06 03:10:35;;;;;;;3.13;1.90;;;;;;;19.07;98.09;100101.06;6270140;28;20477;-70
2023/06/06 03:13:35;;;;;;;1.93;1.37;;;;;;;19.11;99.35;100106.88;6271685;28;20049;-69
2023/06/06 03:16:36;;;;;;;4.43;2.07;;;;;;;19.12;99.61;100113.81;6270100;28;20049;-70
2023/06/06 03:19:37;;;;;;;3.53;2.07;;;;;;;19.20;100.00;100113.09;6270166;28;20130;-70
2023/06/06 03:22:38;;;;;;;4.65;1.83;;;;;;;19.19;100.00;100114.06;6272358;28;20143;-70
2023/06/06 03:25:43;;;;;;;3.57;2.17;;;;;;;19.14;100.00;100122.44;6271002;28;20045;-70
2023/06/06 03:28:44;;;;;;;2.08;1.63;;;;;;;19.13;100.00;100118.97;6272036;28;20416;-69
2023/06/06 03:31:48;;;;;;;2.20;1.80;;;;;;;19.11;100.00;100125.41;6277819;28;20059;-69
2023/06/06 03:34:51;;;;;;;4.07;1.98;;;;;;;19.13;100.00;100124.28;6294682;28;20830;-70
2023/06/06 03:37:55;;;;;;;1.70;1.48;;;;;;;19.09;100.00;100117.59;6295609;28;20132;-70
2023/06/06 03:40:56;;;;;;;6.85;2.08;;;;;;;19.09;100.00;100122.06;6294946;28;20094;-70
2023/06/06 03:43:58;;;;;;;2.50;1.87;;;;;;;19.06;100.00;100123.16;6294118;28;20048;-70
2023/06/06 03:46:59;;;;;;;5.47;2.30;;;;;;;19.09;100.00;100119.44;6292462;28;20041;-69
2023/06/06 03:50:02;;;;;;;3.30;1.90;;;;;;;19.10;100.00;100119.25;6295511;28;20510;-70
2023/06/06 03:53:03;;;;;;;2.65;2.05;;;;;;;19.08;100.00;100125.69;6276908;28;20041;-70
2023/06/06 03:56:04;;;;;;;5.90;2.70;;;;;;;19.04;100.00;100133.06;6281582;28;20052;-70
2023/06/06 03:59:11;;;;;;;6.15;2.40;;;;;;;19.08;100.00;100128.31;6277108;28;20064;-70
2023/06/06 04:02:12;;;;;;;4.43;2.58;;;;;;;19.06;100.00;100131.09;6272006;28;20463;-69
2023/06/06 04:05:13;;;;;;;2.63;2.17;;;;;;;19.03;100.00;100120.84;6271848;28;20045;-70
2023/06/06 04:08:16;;;;;;;3.05;2.00;;;;;;;19.10;100.00;100134.28;6270859;28;20106;-69
2023/06/06 04:11:16;;;;;;;7.03;1.92;;;;;;;19.13;100.00;100126.09;6270523;28;20191;-70
2023/06/06 04:14:17;;;;;;;4.70;2.40;;;;;;;19.08;100.00;100136.25;6273199;28;20075;-70
2023/06/06 04:17:19;;;;;;;2.77;2.37;;;;;;;19.15;100.00;100140.00;6273691;28;20397;-72
2023/06/06 04:20:20;;;;;;;;;;;;;;;19.21;100.00;100142.06;6315242;28;20055;-72
2023/06/06 04:23:20;;;;;;;2.63;2.13;;;;;;;19.10;100.00;100145.69;6295571;28;19920;-71
2023/06/06 04:26:26;;;;;;;3.60;2.03;;;;;;;19.03;100.00;100135.88;6282051;28;20056;-71
2023/06/06 04:29:27;;;;;;;4.72;2.25;;;;;;;18.97;100.00;100129.34;6274942;28;20053;-73
2023/06/06 04:32:29;;;;;;;3.20;2.50;;;;;;;18.96;100.00;100132.13;6278440;28;20122;-73
2023/06/06 04:35:32;;;;;;;;;;;;;;;19.00;100.00;100131.69;6299439;28;20514;-73
2023/06/06 04:38:33;;;;;;;3.05;2.08;;;;;;;18.99;100.00;100129.22;6297432;28;19927;-73
2023/06/06 04:41:34;;;;;;;3.63;1.93;;;;;;;18.98;100.00;100127.53;6288005;28;20052;-72
2023/06/06 04:44:41;;;;;;;3.30;2.20;;;;;;;18.96;100.00;100130.31;6295366;28;20052;-73
2023/06/06 04:47:45;;;;;;;4.85;2.10;;;;;;;18.90;100.00;100131.75;6297495;28;20091;-72
2023/06/06 04:50:52;;;;;;;4.97;2.38;;;;;;;18.96;100.00;100132.97;6274215;28;20455;-73
2023/06/06 04:53:53;;;;;;;3.20;2.13;;;;;;;18.91;100.00;100137.88;6275483;28;20053;-72
2023/06/06 04:56:53;;;;;;;7.23;2.63;;;;;;;18.93;100.00;100138.56;6280898;28;20047;-71
2023/06/06 04:59:56;;;;;;;4.07;2.28;;;;;;;19.00;100.00;100136.97;6297484;28;20309;-72
2023/06/06 05:02:57;;;;;;;3.50;2.10;;;;;;;19.01;100.00;100143.94;6293913;28;20052;-73
2023/06/06 05:05:58;;;;;;;3.60;1.97;;;;;;;19.03;100.00;100142.00;6275003;28;20045;-73
2023/06/06 05:09:03;;;;;;;3.80;1.90;;;;;;;18.96;100.00;100146.19;6275183;28;20449;-72
2023/06/06 05:12:05;;;;;;;2.83;1.92;;;;;;;19.01;100.00;100143.94;6272521;28;20401;-73
2023/06/06 05:15:06;;;;;;;3.75;2.10;;;;;;;18.97;100.00;100141.75;6274841;28;20480;-72
2023/06/06 05:18:07;;;;;;;2.95;2.00;;;;;;;19.07;100.00;100145.19;6273355;28;20535;-73
2023/06/06 05:21:10;;;;;;;3.00;2.33;;;;;;;19.09;100.00;100148.50;6272309;28;20052;-72
2023/06/06 05:24:11;;;;;;;6.20;2.35;;;;;;;19.06;100.00;100146.97;6272855;28;20444;-72
2023/06/06 05:27:12;;;;;;;4.73;2.60;;;;;;;19.21;100.00;100146.47;6255019;28;20049;-73
2023/06/06 05:30:13;;;;;;;2.47;2.10;;;;;;;19.30;100.00;100151.72;6247669;28;20999;-73
2023/06/06 05:33:14;;;;;;;2.33;1.88;;;;;;;19.23;100.00;100157.75;6249161;28;20055;-71
2023/06/06 05:36:18;;;;;;;3.90;2.60;;;;;;;19.12;100.00;100154.31;6270036;28;20413;-73
2023/06/06 05:39:19;;;;;;;3.50;2.13;;;;;;;19.23;100.00;100168.34;6252603;28;20056;-72
2023/06/06 05:42:22;;;;;;;3.38;2.40;;;;;;;19.01;100.00;100157.16;6249085;28;20046;-73
2023/06/06 05:45:23;;;;;;;6.05;2.65;;;;;;;19.08;100.00;100160.88;6264983;28;20076;-73
2023/06/06 05:48:23;;;;;;;4.43;2.43;;;;;;;19.13;100.00;100163.13;6263343;28;20051;-72
2023/06/06 05:51:26;;;;;;;2.58;2.10;;;;;;;19.08;100.00;100157.41;6255057;28;20512;-73
2023/06/06 05:54:27;;;;;;;3.03;2.40;;;;;;;19.26;100.00;100157.47;6262942;28;20060;-72
2023/06/06 05:57:30;;;;;;;3.53;2.43;;;;;;;19.38;100.00;100164.22;6267110;28;20051;-74
2023/06/06 06:00:33;;;;;;;4.40;2.20;;;;;;;19.37;100.00;100170.50;6262049;28;20045;-73
2023/06/06 06:03:34;;;;;;;3.97;2.55;;;;;;;19.45;100.00;100159.16;6257903;28;20049;-73
2023/06/06 06:06:37;;;;;;;2.88;2.22;;;;;;;19.56;100.00;100174.00;6270599;28;20049;-72
2023/06/06 06:09:37;;;;;;;3.85;2.60;;;;;;;19.54;100.00;100176.81;6271304;28;20465;-71
2023/06/06 06:12:38;;;;;;;4.20;2.50;;;;;;;19.48;100.00;100182.72;6291115;28;20049;-72
2023/06/06 06:15:39;;;;;;;2.93;2.43;;;;;;;19.47;100.00;100183.66;6271322;28;20059;-72
2023/06/06 06:18:40;;;;;;;3.43;2.57;;;;;;;19.57;100.00;100199.50;6305811;28;20098;-73
2023/06/06 06:21:41;;;;;;;3.43;2.50;;;;;;;19.61;100.00;100206.16;6251110;28;20057;-73
2023/06/06 06:24:41;;;;;;;6.50;2.97;;;;;;;19.55;100.00;100214.69;6259634;28;20106;-72
2023/06/06 06:27:44;;;;;;;4.03;2.97;;;;;;;19.54;100.00;100213.88;6254744;28;20037;-71
2023/06/06 06:30:45;;;;;;;4.78;3.10;;;;;;;19.21;100.00;100220.53;6267076;28;20598;-72
2023/06/06 06:33:46;;;;;;;8.27;3.60;;;;;;;19.11;100.00;100221.44;6258730;28;20053;-72
2023/06/06 06:36:47;;;;;;;4.80;3.53;;;;;;;19.00;100.00;100216.31;6269795;28;20074;-72
2023/06/06 06:39:49;;;;;;;5.63;3.50;;;;;;;18.92;100.00;100222.34;6253941;28;20056;-72
2023/06/06 06:42:49;;;;;;;5.90;3.15;;;;;;;18.84;100.00;100224.00;6258438;28;20129;-73
2023/06/06 06:45:50;;;;;;;8.25;3.53;;;;;;;18.69;100.00;100221.78;6249614;28;20417;-73
2023/06/06 06:48:51;;;;;;;4.10;2.63;;;;;;;18.59;100.00;100215.66;6250829;28;20413;-72
2023/06/06 06:51:52;;;;;;;7.38;2.80;;;;;;;18.60;100.00;100213.88;6264620;28;20041;-73
2023/06/06 06:54:54;;;;;;;4.77;2.63;;;;;;;18.67;100.00;100214.97;6268045;28;20408;-72
2023/06/06 06:57:56;;;;;;;4.65;1.95;;;;;;;18.72;100.00;100210.94;6272994;28;20288;-72
2023/06/06 07:00:58;;;;;;;;;;;;;;;18.66;100.00;100218.59;6274557;28;20045;-73
2023/06/06 07:04:00;;;;;;;3.95;1.92;;;;;;;18.51;100.00;100215.53;6269677;28;20373;-73
2023/06/06 07:07:01;;;;;;;3.72;2.17;;;;;;;18.58;100.00;100211.38;6269682;28;20077;-73
2023/06/06 07:10:01;;;;;;;2.95;1.88;;;;;;;18.69;100.00;100224.41;6275027;28;20091;-73
2023/06/06 07:13:05;;;;;;;3.35;2.08;;;;;;;18.69;100.00;100221.78;6270236;28;20045;-73
2023/06/06 07:16:06;;;;;;;2.35;1.60;;;;;;;18.80;100.00;100223.47;6269707;28;20147;-72
2023/06/06 07:19:07;;;;;;;4.33;1.83;;;;;;;18.91;100.00;100222.47;6271550;28;20182;-72
2023/06/06 07:22:08;;;;;;;3.13;2.00;;;;;;;19.13;100.00;100221.28;6273308;28;20045;-72
2023/06/06 07:25:11;;;;;;;2.15;1.92;;;;;;;19.31;100.00;100219.56;6254669;28;20053;-72
2023/06/06 07:28:13;;;;;;;6.53;2.30;;;;;;;19.38;100.00;100218.97;6267605;28;20488;-73
2023/06/06 07:31:15;;;;;;;3.55;2.08;;;;;;;19.31;100.00;100230.13;6271025;28;20041;-72
2023/06/06 07:34:15;;;;;;;3.72;2.28;;;;;;;19.44;100.00;100219.22;6253950;28;20052;-72
2023/06/06 07:37:16;;;;;;;3.67;2.50;;;;;;;19.54;100.00;100224.47;6251098;28;20049;-73
2023/06/06 07:40:17;;;;;;;4.00;2.47;;;;;;;19.41;100.00;100224.78;6271377;28;20052;-72
2023/06/06 07:43:20;;;;;;;5.80;2.40;;;;;;;19.51;100.00;100225.56;6273070;28;20059;-72
2023/06/06 07:46:21;;;;;;;4.13;2.67;;;;;;;19.24;100.00;100223.75;6272742;28;20064;-72
2023/06/06 07:49:22;;;;;;;3.10;2.27;;;;;;;19.31;100.00;100230.13;6258415;28;20482;-73
2023/06/06 07:52:23;;;;;;;2.30;2.10;;;;;;;19.42;100.00;100229.09;6264295;28;20052;-72
2023/06/06 07:55:24;;;;;;;;;;;;;;;19.53;100.00;100223.59;6258855;28;20111;-72
2023/06/06 07:58:40;;;;;;;4.85;2.60;;;;;;;19.66;100.00;100228.56;6254698;28;19921;-73
2023/06/06 08:01:40;;;;;;;3.45;2.20;;;;;;;19.77;100.00;100232.84;6255860;28;20053;-72
2023/06/06 08:04:45;;;;;;;3.73;2.63;;;;;;;19.81;100.00;100242.16;6256709;28;20092;-72
2023/06/06 08:07:46;;;;;;;4.18;2.95;;;;;;;19.89;100.00;100236.94;6258212;28;20045;-72
2023/06/06 08:10:47;;;;;;;3.93;2.47;;;;;;;19.86;100.00;100236.41;6249750;28;20050;-73
2023/06/06 08:13:47;;;;;;;3.63;2.83;;;;;;;19.77;100.00;100235.50;6271156;28;20054;-72
2023/06/06 08:16:49;;;;;;;5.57;3.20;;;;;;;19.85;100.00;100240.03;6264234;28;20053;-72
2023/06/06 08:19:50;;;;;;;3.10;2.53;;;;;;;20.09;100.00;100248.22;6262067;28;20056;-72
2023/06/06 08:22:51;;;;;;;5.07;3.03;;;;;;;20.06;100.00;100237.94;6253008;28;20642;-72
2023/06/06 08:25:55;;;;;;;5.07;3.10;;;;;;;20.24;100.00;100240.59;6282283;28;20281;-72
2023/06/06 08:28:56;;;;;;;3.97;3.00;;;;;;;20.04;100.00;100244.38;6261723;28;20096;-71
2023/06/06 08:31:57;;;;;;;7.77;3.43;;;;;;;19.84;100.00;100238.38;6259505;28;20049;-71
2023/06/06 08:34:57;;;;;;;7.73;3.23;;;;;;;20.00;100.00;100248.31;6258816;28;20408;-72
2023/06/06 08:37:58;;;;;;;4.00;2.67;;;;;;;19.99;100.00;100255.41;6257923;28;20132;-72
2023/06/06 08:41:00;;;;;;;7.03;3.23;;;;;;;19.82;100.00;100258.88;6253919;28;20057;-72
2023/06/06 08:44:05;;;;;;;4.05;3.10;;;;;;;19.88;100.00;100256.44;6266755;28;20057;-72
2023/06/06 08:47:08;;;;;;;3.03;2.70;;;;;;;20.00;100.00;100253.63;6260469;28;20040;-72
2023/06/06 08:50:09;;;;;;;6.05;3.40;;;;;;;20.03;100.00;100259.41;6251192;28;20042;-72
2023/06/06 08:53:14;;;;;;;5.32;3.22;;;;;;;20.10;100.00;100268.44;6252986;28;20513;-72
2023/06/06 08:56:15;;;;;;;4.93;3.50;;;;;;;19.99;100.00;100265.16;6249706;28;20052;-72
2023/06/06 08:59:16;;;;;;;4.72;2.85;;;;;;;19.95;100.00;100264.63;6253536;28;20045;-73
2023/06/06 09:02:19;;;;;;;4.73;3.20;;;;;;;20.01;100.00;100260.56;6255622;28;20095;-73
2023/06/06 09:05:20;;;;;;;4.65;2.85;;;;;;;19.91;100.00;100252.66;6261783;28;20057;-72
2023/06/06 09:08:21;;;;;;;8.68;3.63;;;;;;;19.82;100.00;100259.69;6251775;28;20486;-72
2023/06/06 09:11:22;;;;;;;5.77;3.30;;;;;;;19.90;100.00;100248.38;6259538;28;20053;-73
2023/06/06 09:14:23;;;;;;;3.80;3.10;;;;;;;19.79;100.00;100246.78;6280539;28;20056;-73
2023/06/06 09:17:24;;;;;;;4.80;3.63;;;;;;;19.84;100.00;100249.78;6250490;28;20053;-72
2023/06/06 09:20:25;;;;;;;3.57;2.90;;;;;;;19.95;100.00;100256.69;6261090;28;20052;-71
2023/06/06 09:23:32;;;;;;;4.35;3.15;;;;;;;19.93;100.00;100253.34;6264460;28;20048;-72
2023/06/06 09:26:34;;;;;;;5.63;2.67;;;;;;;19.96;100.00;100253.06;6254343;28;20052;-73
2023/06/06 09:29:40;;;;;;;5.00;3.50;;;;;;;20.15;100.00;100259.22;6247730;28;20394;-72
2023/06/06 09:32:43;;;;;;;4.10;2.80;;;;;;;20.17;100.00;100255.44;6290025;28;20183;-71
2023/06/06 09:35:44;;;;;;;4.45;3.40;;;;;;;20.08;100.00;100253.69;6272214;28;20136;-72
2023/06/06 09:38:45;;;;;;;6.43;2.50;;;;;;;20.13;100.00;100254.88;6269997;28;20057;-71
2023/06/06 09:41:47;;;;;;;4.27;2.67;;;;;;;20.24;100.00;100258.28;6256244;28;20048;-73
2023/06/06 09:44:48;;;;;;;2.80;2.00;;;;;;;20.29;100.00;100258.69;6261772;28;20500;-72
2023/06/06 09:47:49;;;;;;;4.67;2.63;;;;;;;20.13;100.00;100256.72;6247057;28;21276;-73
2023/06/06 09:50:50;;;;;;;5.47;2.22;;;;;;;20.17;100.00;100258.06;6253613;28;20437;-73
2023/06/06 09:53:52;;;;;;;4.30;2.40;;;;;;;20.13;100.00;100257.53;6246389;28;20083;-71
2023/06/06 09:56:55;;;;;;;3.67;2.40;;;;;;;20.09;100.00;100258.81;6255759;28;20041;-73
2023/06/06 09:59:59;;;;;;;2.58;2.13;;;;;;;19.97;100.00;100248.59;6249876;28;20567;-72
2023/06/06 10:03:01;;;;;;;3.05;2.25;;;;;;;20.06;100.00;100260.97;6256420;28;20052;-71
2023/06/06 10:06:05;;;;;;;2.28;1.92;;;;;;;20.17;100.00;100263.38;6252443;28;20057;-71
2023/06/06 10:09:06;;;;;;;2.75;2.13;;;;;;;20.18;100.00;100273.00;6258491;28;20083;-73
2023/06/06 10:12:09;;;;;;;3.15;2.25;;;;;;;20.13;100.00;100268.13;6266486;28;20045;-72
2023/06/06 10:15:12;;;;;;;2.88;2.20;;;;;;;20.25;100.00;100265.28;6258799;28;20481;-71
2023/06/06 10:18:13;;;;;;;2.50;2.20;;;;;;;20.03;100.00;100262.06;6247331;28;20049;-73
2023/06/06 10:21:15;;;;;;;3.03;2.17;;;;;;;19.80;100.00;100269.59;6250944;28;20148;-73
2023/06/06 10:24:16;;;;;;;3.42;2.25;;;;;;;19.68;100.00;100271.59;6254360;28;20053;-71
2023/06/06 10:27:22;;;;;;;4.47;2.33;;;;;;;19.64;100.00;100261.44;6253886;28;20048;-72
2023/06/06 10:30:41;;;;;;;3.53;2.13;;;;;;;19.61;100.00;100259.09;6246684;28;20058;-73
2023/06/06 10:33:54;;;;;;;2.83;1.95;;;;;;;19.45;100.00;100252.59;6254531;28;20139;-71
2023/06/06 10:36:56;;;;;;;3.50;2.45;;;;;;;19.47;100.00;100247.19;6249914;28;20382;-72
2023/06/06 10:40:04;;;;;;;3.58;2.45;;;;;;;19.54;100.00;100250.91;6271943;28;20048;-73
2023/06/06 10:43:05;;;;;;;2.42;2.10;;;;;;;19.72;100.00;100250.97;6270532;28;20462;-73
2023/06/06 10:46:07;;;;;;;4.37;2.43;;;;;;;19.83;100.00;100245.50;6271916;28;20104;-73
2023/06/06 10:49:09;;;;;;;2.55;2.05;;;;;;;19.81;100.00;100239.50;6264840;28;20053;-72
2023/06/06 10:52:13;;;;;;;4.47;2.05;;;;;;;19.99;100.00;100242.16;6260265;28;20049;-72
2023/06/06 10:55:38;;;;;;;2.80;2.17;;;;;;;20.19;100.00;100240.22;6254091;28;20053;-73
2023/06/06 10:58:39;;;;;;;3.47;2.15;;;;;;;20.30;100.00;100228.53;6252388;28;20059;-72
2023/06/06 11:01:42;;;;;;;5.03;2.20;;;;;;;20.59;100.00;100227.50;6252683;28;20045;-72
2023/06/06 11:04:43;;;;;;;4.60;2.20;;;;;;;20.39;100.00;100226.81;6255509;28;20550;-71
2023/06/06 11:07:47;;;;;;;12.80;2.35;;;;;;;20.55;100.00;100226.97;6255440;28;20094;-72
2023/06/06 11:10:48;;;;;;;3.05;2.10;;;;;;;20.61;100.00;100229.03;6255663;28;20556;-72
2023/06/06 11:13:53;;;;;;;2.83;2.30;;;;;;;20.52;100.00;100222.78;6261427;28;20048;-73
2023/06/06 11:16:59;;;;;;;3.47;2.40;;;;;;;20.53;100.00;100215.69;6265087;28;20048;-73
2023/06/06 11:20:03;;;;;;;3.17;2.40;;;;;;;20.58;100.00;100215.19;6263505;28;20045;-73
2023/06/06 11:23:05;;;;;;;4.97;2.80;;;;;;;20.75;100.00;100217.00;6267684;28;20041;-73
2023/06/06 11:26:08;;;;;;;;;;;;;;;20.75;100.00;100214.34;6257974;28;20049;-73
2023/06/06 11:29:10;;;;;;;4.82;2.45;;;;;;;21.04;100.00;100202.59;6263767;28;20291;-73
2023/06/06 11:32:15;;;;;;;2.92;2.55;;;;;;;20.91;100.00;100211.81;6258069;28;20060;-72
2023/06/06 11:35:21;;;;;;;5.07;2.65;;;;;;;21.07;100.00;100205.75;6276797;28;20053;-72
2023/06/06 11:38:24;;;;;;;3.78;2.70;;;;;;;20.88;100.00;100203.34;6283244;28;20575;-71
2023/06/06 11:41:27;;;;;;;2.78;2.20;;;;;;;20.94;100.00;100192.13;6274425;28;20081;-72
2023/06/06 11:44:37;;;;;;;3.15;2.58;;;;;;;20.86;100.00;100190.25;6299182;28;20113;-72
2023/06/06 11:47:37;;;;;;;3.35;2.75;;;;;;;20.71;100.00;100199.75;6295405;28;20040;-71
2023/06/06 11:50:38;;;;;;;4.87;2.50;;;;;;;20.83;100.00;100202.97;6279594;28;20052;-72
2023/06/06 11:53:39;;;;;;;5.20;2.80;;;;;;;20.57;100.00;100200.28;6272866;28;20053;-72
2023/06/06 11:56:40;;;;;;;3.63;2.37;;;;;;;20.58;100.00;100199.31;6275485;28;20041;-72
2023/06/06 12:10:27;;;;;;;3.13;2.63;;;;;;;20.82;100.00;100196.03;6292867;28;20386;-70
2023/06/06 12:13:31;;;;;;;3.67;2.20;;;;;;;20.72;100.00;100198.75;6293262;28;20044;-71
2023/06/06 12:16:35;;;;;;;5.00;2.67;;;;;;;20.61;100.00;100193.69;6290006;28;20044;-71
2023/06/06 12:19:38;;;;;;;4.55;2.70;;;;;;;20.52;100.00;100192.78;6292992;28;20088;-71
2023/06/06 12:22:40;;;;;;;3.45;2.80;;;;;;;20.46;100.00;100185.47;6290181;28;20055;-70
2023/06/06 12:25:41;;;;;;;3.67;2.73;;;;;;;20.49;100.00;100187.81;6274693;28;20072;-70
2023/06/06 12:28:57;;;;;;;4.85;2.97;;;;;;;20.66;100.00;100184.31;6271923;28;20354;-70
2023/06/06 12:32:29;;;;;;;3.20;2.50;;;;;;;21.03;100.00;100171.75;6259848;28;20049;-70
2023/06/06 12:35:30;;;;;;;5.53;2.83;;;;;;;20.83;100.00;100185.22;6281378;28;20106;-70
2023/06/06 12:38:33;;;;;;;3.43;2.83;;;;;;;20.88;100.00;100174.19;6273271;28;20486;-70
2023/06/06 12:41:43;;;;;;;3.55;2.67;;;;;;;20.35;100.00;100178.59;6271765;28;20077;-70
2023/06/06 12:44:45;;;;;;;2.90;2.22;;;;;;;20.28;100.00;100175.72;6268824;28;20443;-70
2023/06/06 12:47:53;;;;;;;3.00;2.35;;;;;;;20.36;100.00;100174.94;6260524;28;20055;-70
2023/06/06 12:50:56;;;;;;;4.35;3.00;;;;;;;20.47;100.00;100169.41;6267685;28;20477;-70
2023/06/06 12:53:59;;;;;;;3.72;2.67;;;;;;;20.57;100.00;100174.63;6287958;28;20412;-70
2023/06/06 12:57:00;;;;;;;3.97;2.72;;;;;;;20.64;100.00;100170.38;6291150;28;20052;-70
2023/06/06 13:00:05;;;;;;;4.07;3.00;;;;;;;20.82;100.00;100158.91;6261871;28;20084;-70
2023/06/06 13:03:09;;;;;;;4.78;2.95;;;;;;;20.90;100.00;100166.91;6250994;28;20069;-70
2023/06/06 13:06:11;;;;;;;3.05;2.58;;;;;;;20.45;100.00;100168.72;6265604;28;20063;-70
2023/06/06 13:09:13;;;;;;;4.25;2.88;;;;;;;20.27;100.00;100160.81;6260958;28;20073;-70
2023/06/06 13:12:13;;;;;;;3.35;2.83;;;;;;;20.07;100.00;100161.97;6250304;28;20074;-70
2023/06/06 13:15:15;;;;;;;2.65;2.35;;;;;;;20.25;100.00;100156.66;6287081;28;20128;-70
2023/06/06 13:18:16;;;;;;;4.05;2.80;;;;;;;20.50;100.00;100153.19;6256523;28;20088;-69
2023/06/06 13:21:17;;;;;;;3.33;2.60;;;;;;;20.40;100.00;100163.03;6258101;28;20131;-70
2023/06/06 13:24:20;;;;;;;2.67;2.47;;;;;;;20.40;100.00;100155.09;6258560;28;20045;-69
2023/06/06 13:27:21;;;;;;;3.70;2.65;;;;;;;20.55;100.00;100155.38;6260441;28;20045;-71
2023/06/06 13:30:23;;;;;;;3.77;2.50;;;;;;;20.27;100.00;100149.38;6262851;28;20413;-70
2023/06/06 13:33:24;;;;;;;4.03;2.60;;;;;;;20.05;100.00;100156.81;6261606;28;20135;-70
2023/06/06 13:36:25;;;;;;;2.63;2.20;;;;;;;20.04;100.00;100151.69;6256124;28;20495;-70
2023/06/06 13:39:28;;;;;;;3.80;2.70;;;;;;;20.14;100.00;100149.78;6261078;28;20052;-70
2023/06/06 13:42:29;;;;;;;3.17;2.42;;;;;;;20.02;100.00;100157.13;6260132;28;20060;-70
2023/06/06 13:45:30;;;;;;;3.73;2.87;;;;;;;20.03;100.00;100150.84;6262887;28;20112;-70
2023/06/06 13:48:31;;;;;;;4.07;2.60;;;;;;;20.15;100.00;100153.25;6261256;28;20059;-70
2023/06/06 13:51:32;;;;;;;5.30;2.03;;;;;;;20.19;100.00;100152.78;6263520;28;20049;-70
2023/06/06 13:54:35;;;;;;;2.95;2.22;;;;;;;20.09;100.00;100150.22;6265996;28;20049;-69
2023/06/06 13:57:41;;;;;;;4.75;2.10;;;;;;;19.77;100.00;100155.22;6256695;28;20183;-70
2023/06/06 14:00:44;;;;;;;3.58;2.17;;;;;;;19.63;100.00;100146.81;6263870;28;20531;-70
2023/06/06 14:03:45;;;;;;;3.17;2.42;;;;;;;19.71;100.00;100143.44;6261395;28;20052;-70
2023/06/06 14:06:46;;;;;;;3.50;2.60;;;;;;;19.69;100.00;100145.38;6260136;28;20053;-69
2023/06/06 14:09:47;;;;;;;3.60;2.30;;;;;;;19.76;100.00;100137.69;6259947;28;20060;-70
2023/06/06 14:12:48;;;;;;;2.90;2.10;;;;;;;19.69;100.00;100145.38;6261045;28;20511;-70
2023/06/06 14:15:51;;;;;;;;;;;;;;;19.80;100.00;100136.41;6261513;28;20048;-70